Time;durP1;ratioP1;P1;durP2;ratioP2;P2;SDS_P1;SDS_P2;PMS_P1;PMS_P2;Temp;Humidity;BMP_temperature;BMP_pressure;BME280_temperature;BME280_humidity;BME280_pressure;Samples;Min_cycle;Max_cycle;Signal;HPM_P1;HPM_P2
2023/09/11 00:01:22;;;;;;;2.97;1.42;;;;;;;16.37;100.00;100619.25;4995473;28;20038;-91
2023/09/11 00:03:48;;;;;;;2.17;1.10;;;;;;;16.33;100.00;100624.31;4995300;28;20054;-89
2023/09/11 00:06:14;;;;;;;1.90;1.13;;;;;;;16.23;100.00;100623.94;4978652;28;20042;-89
2023/09/11 00:08:40;;;;;;;2.05;1.08;;;;;;;16.08;100.00;100610.63;4979164;28;20398;-89
2023/09/11 00:11:05;;;;;;;2.00;1.00;;;;;;;16.06;100.00;100620.84;4995161;28;20030;-88
2023/09/11 00:13:31;;;;;;;2.25;1.20;;;;;;;15.94;100.00;100620.72;4994832;28;20037;-89
2023/09/11 00:15:57;;;;;;;3.47;1.20;;;;;;;15.85;100.00;100605.75;4996052;28;20124;-88
2023/09/11 00:18:26;;;;;;;2.83;1.00;;;;;;;15.81;100.00;100610.75;5011091;28;20026;-89
2023/09/11 00:20:52;;;;;;;1.80;1.10;;;;;;;15.79;100.00;100610.13;4994371;28;20058;-90
2023/09/11 00:23:17;;;;;;;2.00;1.10;;;;;;;15.83;100.00;100614.06;5010818;28;20073;-88
2023/09/11 00:25:43;;;;;;;1.77;1.10;;;;;;;15.77;100.00;100614.94;5010884;28;20050;-90
2023/09/11 00:28:09;;;;;;;3.83;1.40;;;;;;;15.72;100.00;100611.22;5010965;28;20036;-87
2023/09/11 00:30:38;;;;;;;4.85;1.80;;;;;;;15.68;100.00;100613.47;5010714;28;20061;-88
2023/09/11 00:33:04;;;;;;;5.10;2.28;;;;;;;15.64;100.00;100605.97;4994595;28;20362;-87
2023/09/11 00:35:30;;;;;;;2.10;1.60;;;;;;;15.59;100.00;100607.44;5010393;28;20459;-89
2023/09/11 00:37:56;;;;;;;3.97;1.63;;;;;;;15.56;100.00;100609.75;4994475;28;20129;-87
2023/09/11 00:40:21;;;;;;;4.10;1.65;;;;;;;15.49;100.00;100608.94;4994331;28;20041;-91
2023/09/11 00:42:47;;;;;;;3.80;1.60;;;;;;;15.45;100.00;100610.38;4978135;28;20473;-88
2023/09/11 00:45:13;;;;;;;3.53;1.60;;;;;;;15.42;100.00;100603.50;4994313;28;20027;-88
2023/09/11 00:47:40;;;;;;;3.20;1.60;;;;;;;15.36;100.00;100602.50;4994266;28;20045;-89
2023/09/11 00:50:07;;;;;;;5.85;1.98;;;;;;;15.38;100.00;100605.81;4978186;28;20026;-88
2023/09/11 00:52:33;;;;;;;4.50;2.17;;;;;;;15.40;100.00;100608.34;4978221;28;20049;-88
2023/09/11 00:54:59;;;;;;;5.20;2.05;;;;;;;15.36;100.00;100602.50;4994548;28;20038;-90
2023/09/11 00:57:25;;;;;;;6.82;2.28;;;;;;;15.31;100.00;100606.88;4978076;28;20088;-88
2023/09/11 00:59:51;;;;;;;4.78;1.98;;;;;;;15.33;100.00;100607.50;4994071;28;20362;-88
2023/09/11 01:02:17;;;;;;;3.42;1.73;;;;;;;15.26;100.00;100596.66;4993972;28;20457;-87
2023/09/11 01:04:43;;;;;;;7.22;2.63;;;;;;;15.28;100.00;100596.47;5009901;28;20037;-88
2023/09/11 01:07:09;;;;;;;4.10;1.90;;;;;;;15.31;100.00;100601.47;4993969;28;20046;-88
2023/09/11 01:09:35;;;;;;;5.18;1.90;;;;;;;15.25;100.00;100594.19;4977742;28;20100;-89
2023/09/11 01:12:00;;;;;;;6.72;2.13;;;;;;;15.37;100.00;100597.91;4993605;28;20030;-87
2023/09/11 01:14:27;;;;;;;5.40;2.15;;;;;;;15.37;100.00;100592.47;4993767;28;20034;-88
2023/09/11 01:16:58;;;;;;;5.28;1.90;;;;;;;15.36;100.00;100599.78;5010059;28;20042;-88
2023/09/11 01:19:43;;;;;;;4.70;2.00;;;;;;;15.39;100.00;100593.09;4993984;28;20030;-88
2023/09/11 01:22:12;;;;;;;4.70;2.08;;;;;;;15.37;100.00;100593.34;4993474;28;20069;-88
2023/09/11 01:25:20;;;;;;;2.97;1.63;;;;;;;15.36;100.00;100601.66;4993675;28;20037;-88
2023/09/11 01:28:29;;;;;;;5.88;1.88;;;;;;;15.36;100.00;100602.50;4986440;28;20042;-88
2023/09/11 01:30:54;;;;;;;3.63;1.70;;;;;;;15.37;100.00;100597.91;4993338;28;20038;-88
2023/09/11 01:33:20;;;;;;;9.80;2.55;;;;;;;15.33;100.00;100588.53;4994606;28;20078;-88
2023/09/11 01:35:45;;;;;;;4.75;1.83;;;;;;;15.33;100.00;100588.53;5009774;28;20529;-88
2023/09/11 01:38:11;;;;;;;3.58;2.00;;;;;;;15.37;100.00;100578.94;4993376;28;20452;-87
2023/09/11 01:40:40;;;;;;;6.45;2.70;;;;;;;15.37;100.00;100595.19;4993447;28;20041;-87
2023/09/11 01:43:07;;;;;;;6.50;2.78;;;;;;;15.42;100.00;100594.56;5009266;28;20141;-87
2023/09/11 01:45:34;;;;;;;4.88;2.60;;;;;;;15.34;100.00;100579.34;5009606;28;20062;-87
2023/09/11 01:48:01;;;;;;;5.20;2.30;;;;;;;15.38;100.00;100589.56;4961124;28;20043;-87
2023/09/11 01:50:27;;;;;;;3.97;2.10;;;;;;;15.39;100.00;100593.09;5009473;28;20034;-88
2023/09/11 01:52:53;;;;;;;4.53;2.22;;;;;;;15.35;100.00;100581.88;5009573;28;20093;-88
2023/09/11 01:55:20;;;;;;;4.15;1.92;;;;;;;15.31;100.00;100574.38;5009375;28;20449;-87
2023/09/11 01:57:45;;;;;;;4.43;1.77;;;;;;;15.32;100.00;100576.88;5009301;28;20088;-88
2023/09/11 02:00:12;;;;;;;5.85;2.13;;;;;;;15.33;100.00;100572.28;4993219;28;20042;-91
2023/09/11 02:02:38;;;;;;;4.28;1.90;;;;;;;15.29;100.00;100573.75;4977958;28;20164;-87
2023/09/11 02:05:04;;;;;;;5.25;2.00;;;;;;;15.26;100.00;100575.00;4997785;28;20038;-87
2023/09/11 02:07:29;;;;;;;5.32;1.80;;;;;;;15.26;100.00;100575.00;5000053;28;20121;-87
2023/09/11 02:09:55;;;;;;;3.10;1.52;;;;;;;15.30;100.00;100587.09;4999381;28;20437;-86
2023/09/11 02:12:22;;;;;;;3.25;2.10;;;;;;;15.29;100.00;100574.56;5002019;28;20034;-88
2023/09/11 02:14:48;;;;;;;6.70;2.05;;;;;;;15.23;100.00;100578.13;5014953;28;20022;-88
2023/09/11 02:17:13;;;;;;;4.80;1.85;;;;;;;15.21;100.00;100576.69;5013076;28;20034;-87
2023/09/11 02:19:39;;;;;;;2.97;1.67;;;;;;;15.12;100.00;100562.53;4980871;28;20120;-88
2023/09/11 02:22:05;;;;;;;7.75;1.90;;;;;;;15.12;100.00;100565.25;4997087;28;20031;-88
2023/09/11 02:24:30;;;;;;;3.00;1.90;;;;;;;15.12;100.00;100573.38;4997207;28;20022;-87
2023/09/11 02:26:56;;;;;;;3.83;2.13;;;;;;;15.05;100.00;100569.81;4997046;28;20121;-87
2023/09/11 02:29:22;;;;;;;7.50;3.00;;;;;;;15.04;100.00;100568.16;4997278;28;20084;-88
2023/09/11 02:31:47;;;;;;;6.90;2.03;;;;;;;15.05;100.00;100567.13;4996731;28;20457;-88
2023/09/11 02:34:15;;;;;;;4.35;2.05;;;;;;;15.07;100.00;100563.16;4996591;28;20026;-87
2023/09/11 02:36:41;;;;;;;5.10;2.55;;;;;;;15.06;100.00;100564.22;5012562;28;20026;-90
2023/09/11 02:39:06;;;;;;;5.43;2.13;;;;;;;15.09;100.00;100562.97;4997834;28;20026;-87
2023/09/11 02:41:32;;;;;;;5.80;2.45;;;;;;;15.11;100.00;100560.84;4997052;28;20026;-87
2023/09/11 02:43:58;;;;;;;8.05;2.35;;;;;;;15.12;100.00;100562.53;4997135;28;20479;-88
2023/09/11 02:46:24;;;;;;;5.30;2.30;;;;;;;15.13;100.00;100559.59;4996557;28;20089;-87
2023/09/11 02:48:50;;;;;;;4.93;1.98;;;;;;;15.12;100.00;100557.94;4980446;28;20034;-87
2023/09/11 02:51:17;;;;;;;5.50;2.38;;;;;;;15.14;100.00;100558.56;4996292;28;20461;-87
2023/09/11 02:53:43;;;;;;;5.47;2.28;;;;;;;15.15;100.00;100556.69;5012439;28;20038;-88
2023/09/11 02:56:10;;;;;;;6.82;2.05;;;;;;;15.17;100.00;100560.03;5012567;28;20093;-87
2023/09/11 02:58:35;;;;;;;4.40;2.10;;;;;;;15.20;100.00;100561.47;4995945;28;20436;-88
2023/09/11 03:01:02;;;;;;;4.05;1.92;;;;;;;15.21;100.00;100555.00;4996248;28;20030;-88
2023/09/11 03:03:28;;;;;;;5.13;2.30;;;;;;;15.19;100.00;100552.53;4997503;28;20038;-88
2023/09/11 03:06:04;;;;;;;6.53;2.00;;;;;;;15.20;100.00;100553.34;4979401;28;20034;-87
2023/09/11 03:08:30;;;;;;;6.63;2.33;;;;;;;15.18;100.00;100543.53;4979973;28;20129;-88
2023/09/11 03:11:04;;;;;;;3.60;1.80;;;;;;;15.22;100.00;100553.97;4979876;28;20462;-87
2023/09/11 03:13:30;;;;;;;4.40;1.90;;;;;;;15.23;100.00;100551.03;5012205;28;20503;-88
2023/09/11 03:16:13;;;;;;;6.10;2.10;;;;;;;15.25;100.00;100551.66;4979806;28;20140;-87
2023/09/11 03:18:39;;;;;;;5.10;2.22;;;;;;;15.27;100.00;100546.88;5012301;28;20042;-88
2023/09/11 03:21:07;;;;;;;3.50;2.05;;;;;;;15.27;100.00;100549.59;4995710;28;20037;-88
2023/09/11 03:23:33;;;;;;;4.00;2.00;;;;;;;15.27;100.00;100552.31;5011815;28;20061;-88
2023/09/11 03:25:59;;;;;;;5.07;2.00;;;;;;;15.27;100.00;100549.59;4995774;28;20030;-87
2023/09/11 03:28:28;;;;;;;4.50;2.05;;;;;;;15.31;100.00;100544.56;5011492;28;20053;-88
2023/09/11 03:30:54;;;;;;;6.55;2.40;;;;;;;15.28;100.00;100539.59;5011860;28;20133;-88
2023/09/11 03:33:19;;;;;;;5.65;2.38;;;;;;;15.34;100.00;100538.72;5011877;28;20117;-87
2023/09/11 03:35:46;;;;;;;5.20;2.63;;;;;;;15.34;100.00;100541.44;4995623;28;20374;-87
2023/09/11 03:38:13;;;;;;;7.38;2.97;;;;;;;15.29;100.00;100539.34;5011350;28;20061;-88
2023/09/11 03:40:39;;;;;;;7.80;3.25;;;;;;;15.23;100.00;100534.78;4979133;28;20034;-88
2023/09/11 03:43:05;;;;;;;9.75;3.78;;;;;;;15.22;100.00;100533.16;4994679;28;20072;-87
2023/09/11 03:45:30;;;;;;;9.20;4.15;;;;;;;15.21;100.00;100531.47;4995604;28;20038;-88
2023/09/11 03:47:56;;;;;;;9.05;4.15;;;;;;;15.18;100.00;100529.19;4995628;28;20034;-88
2023/09/11 03:50:21;;;;;;;5.53;3.42;;;;;;;15.18;100.00;100530.00;5011566;28;20034;-87
2023/09/11 03:52:50;;;;;;;7.30;3.47;;;;;;;15.16;100.00;100528.56;4995034;28;20030;-89
2023/09/11 03:55:16;;;;;;;7.47;4.10;;;;;;;15.14;100.00;100523.38;4979293;28;20034;-87
2023/09/11 03:57:42;;;;;;;8.05;4.45;;;;;;;15.16;100.00;100532.13;4978871;28;20076;-88
2023/09/11 04:00:08;;;;;;;6.18;3.53;;;;;;;15.14;100.00;100523.38;4963089;28;20061;-88
2023/09/11 04:02:34;;;;;;;8.93;4.57;;;;;;;15.14;100.00;100527.94;4979126;28;20065;-88
2023/09/11 04:05:00;;;;;;;9.05;4.47;;;;;;;15.10;100.00;100521.28;4994897;28;20034;-88
2023/09/11 04:07:25;;;;;;;8.70;3.80;;;;;;;15.13;100.00;100520.84;5011233;28;20500;-88
2023/09/11 04:09:51;;;;;;;8.13;4.10;;;;;;;15.13;100.00;100520.84;5010908;28;20087;-87
2023/09/11 04:12:17;;;;;;;7.35;4.18;;;;;;;15.11;100.00;100514.81;4995010;28;20023;-87
2023/09/11 04:14:43;;;;;;;8.02;4.60;;;;;;;15.09;100.00;100514.22;5010827;28;20035;-88
2023/09/11 04:17:10;;;;;;;7.90;4.25;;;;;;;15.07;100.00;100513.59;5011275;28;20049;-88
2023/09/11 04:19:39;;;;;;;9.52;4.20;;;;;;;15.03;100.00;100517.75;4994738;28;20034;-87
2023/09/11 04:22:06;;;;;;;9.00;4.05;;;;;;;15.04;100.00;100519.44;4994832;28;20128;-88
2023/09/11 04:24:32;;;;;;;10.70;4.03;;;;;;;15.03;100.00;100517.75;4994678;28;20034;-88
2023/09/11 04:26:58;;;;;;;8.15;4.20;;;;;;;15.06;100.00;100520.06;4993759;28;20096;-88
2023/09/11 04:29:24;;;;;;;10.45;3.75;;;;;;;15.07;100.00;100511.69;4994780;28;20433;-88
2023/09/11 04:31:50;;;;;;;7.05;3.55;;;;;;;15.09;100.00;100525.03;4978441;28;20481;-88
2023/09/11 04:34:18;;;;;;;8.98;4.18;;;;;;;15.12;100.00;100519.19;4994589;28;20121;-87
2023/09/11 04:36:44;;;;;;;8.25;4.43;;;;;;;15.09;100.00;100517.75;4978715;28;20042;-87
2023/09/11 04:39:12;;;;;;;6.95;3.72;;;;;;;15.09;100.00;100512.34;5005699;28;20018;-86
2023/09/11 04:41:37;;;;;;;6.63;3.70;;;;;;;15.06;100.00;100504.63;5001131;28;20034;-86
2023/09/11 04:44:03;;;;;;;7.32;4.00;;;;;;;15.07;100.00;100500.03;5002207;28;20026;-87
2023/09/11 04:46:29;;;;;;;9.60;3.78;;;;;;;15.06;100.00;100501.94;4993905;28;20034;-88
2023/09/11 04:48:55;;;;;;;8.00;3.92;;;;;;;15.05;100.00;100507.53;4994118;28;20030;-86
2023/09/11 04:51:21;;;;;;;7.38;3.58;;;;;;;15.05;100.00;100502.13;4995167;28;20056;-88
2023/09/11 04:53:47;;;;;;;7.97;3.30;;;;;;;15.08;100.00;100507.13;4995459;28;20532;-87
2023/09/11 04:56:14;;;;;;;6.00;3.47;;;;;;;15.10;100.00;100505.84;4994699;28;20121;-88
2023/09/11 04:58:39;;;;;;;7.85;3.88;;;;;;;15.17;100.00;100513.97;4993957;28;20137;-87
2023/09/11 05:01:05;;;;;;;7.80;3.25;;;;;;;15.17;100.00;100509.41;4993799;28;20113;-88
2023/09/11 05:03:31;;;;;;;10.75;3.60;;;;;;;15.18;100.00;100502.09;4994208;28;20487;-87
2023/09/11 05:05:56;;;;;;;7.97;3.10;;;;;;;15.18;100.00;100515.63;4994278;28;20030;-87
2023/09/11 05:08:22;;;;;;;10.10;3.67;;;;;;;15.24;100.00;100513.94;4993855;28;20481;-88
2023/09/11 05:10:47;;;;;;;8.30;3.20;;;;;;;15.23;100.00;100513.13;4994717;28;20362;-87
2023/09/11 05:13:15;;;;;;;9.20;3.75;;;;;;;15.27;100.00;100510.81;4995010;28;20097;-87
2023/09/11 05:15:40;;;;;;;6.28;3.25;;;;;;;15.25;100.00;100507.50;4996604;28;20484;-88
2023/09/11 05:18:06;;;;;;;6.53;2.55;;;;;;;15.28;100.00;100513.31;5010964;28;20109;-87
2023/09/11 05:20:31;;;;;;;6.10;3.15;;;;;;;15.29;100.00;100512.25;4994610;28;20081;-87
2023/09/11 05:23:30;;;;;;;6.03;3.05;;;;;;;15.27;100.00;100517.09;4994993;28;20038;-87
2023/09/11 05:25:58;;;;;;;8.90;3.38;;;;;;;15.18;100.00;100494.78;4976023;28;20074;-88
2023/09/11 05:28:24;;;;;;;6.65;2.45;;;;;;;15.17;100.00;100498.56;4995387;28;20062;-88
2023/09/11 05:30:50;;;;;;;8.75;2.63;;;;;;;15.20;100.00;100507.31;4994310;28;20031;-88
2023/09/11 05:33:15;;;;;;;5.40;2.50;;;;;;;15.14;100.00;100512.53;4995126;28;20038;-87
2023/09/11 05:35:44;;;;;;;5.78;2.42;;;;;;;15.13;100.00;100510.03;4994246;28;20038;-88
2023/09/11 05:38:09;;;;;;;7.03;2.65;;;;;;;15.17;100.00;100519.41;5009895;28;20146;-88
2023/09/11 05:40:35;;;;;;;5.07;2.85;;;;;;;15.17;100.00;100524.81;4995912;28;20085;-88
2023/09/11 05:43:00;;;;;;;4.00;2.38;;;;;;;15.16;100.00;100524.00;4995568;28;20038;-88
2023/09/11 05:45:26;;;;;;;4.60;2.95;;;;;;;15.18;100.00;100523.75;4995874;28;20026;-89
2023/09/11 05:47:51;;;;;;;5.15;2.58;;;;;;;15.14;100.00;100517.13;4997423;28;20054;-89
2023/09/11 05:50:17;;;;;;;5.30;2.42;;;;;;;15.14;100.00;100523.38;4998736;28;20022;-89
2023/09/11 05:52:43;;;;;;;5.63;2.03;;;;;;;15.13;100.00;100527.09;5016723;28;20022;-89
2023/09/11 05:55:08;;;;;;;4.55;1.90;;;;;;;15.13;100.00;100528.97;5017688;28;20034;-90
2023/09/11 05:57:34;;;;;;;4.93;2.10;;;;;;;15.10;100.00;100529.41;5017516;28;20034;-89
2023/09/11 06:00:01;;;;;;;3.78;1.77;;;;;;;15.05;100.00;100521.09;5018128;28;20424;-90
2023/09/11 06:02:27;;;;;;;6.00;2.80;;;;;;;15.10;100.00;100530.22;5002523;28;20034;-90
2023/09/11 06:04:53;;;;;;;5.55;2.22;;;;;;;15.06;100.00;100530.88;5003380;28;20396;-90
2023/09/11 06:07:19;;;;;;;5.75;1.98;;;;;;;15.08;100.00;100526.94;5003972;28;20062;-91
2023/09/11 06:09:45;;;;;;;6.47;2.25;;;;;;;15.12;100.00;100532.75;5002966;28;20110;-89
2023/09/11 06:12:10;;;;;;;4.68;2.05;;;;;;;15.11;100.00;100529.22;5018755;28;20067;-90
2023/09/11 06:14:37;;;;;;;3.75;1.50;;;;;;;15.11;100.00;100540.03;5004305;28;20093;-90
2023/09/11 06:17:05;;;;;;;3.53;1.50;;;;;;;15.12;100.00;100535.44;4982561;28;20030;-91
2023/09/11 06:19:31;;;;;;;6.03;2.30;;;;;;;15.15;100.00;100535.84;5010799;28;20034;-90
2023/09/11 06:21:56;;;;;;;4.97;1.90;;;;;;;15.14;100.00;100533.38;5010755;28;20053;-91
2023/09/11 06:24:22;;;;;;;5.70;1.70;;;;;;;15.13;100.00;100527.09;4995549;28;20070;-90
2023/09/11 06:27:01;;;;;;;5.30;1.65;;;;;;;15.18;100.00;100540.00;5010847;28;20382;-91
2023/09/11 06:29:27;;;;;;;4.38;1.70;;;;;;;15.18;100.00;100534.59;4994562;28;20366;-90
2023/09/11 06:31:52;;;;;;;6.70;1.75;;;;;;;15.20;100.00;100537.09;4994846;28;20034;-92
2023/09/11 06:34:18;;;;;;;4.88;1.60;;;;;;;15.24;100.00;100541.91;4978074;28;20053;-90
2023/09/11 06:36:44;;;;;;;7.45;2.00;;;;;;;15.26;100.00;100542.50;5010555;28;20113;-90
2023/09/11 06:39:09;;;;;;;4.70;1.73;;;;;;;15.31;100.00;100539.97;4978146;28;20046;-91
2023/09/11 06:41:35;;;;;;;3.78;1.58;;;;;;;15.36;100.00;100548.31;4994982;28;20117;-91
2023/09/11 06:44:02;;;;;;;5.32;1.60;;;;;;;15.39;100.00;100549.75;4995236;28;20037;-91
2023/09/11 06:46:30;;;;;;;3.58;1.48;;;;;;;15.38;100.00;100534.56;5009905;28;20030;-90
2023/09/11 06:48:56;;;;;;;2.88;1.48;;;;;;;15.43;100.00;100552.88;4995967;28;20473;-90
2023/09/11 06:51:21;;;;;;;3.05;2.28;;;;;;;15.41;100.00;100555.81;4998226;28;20031;-90
2023/09/11 06:53:48;;;;;;;5.82;1.50;;;;;;;15.42;100.00;100553.91;4997336;28;20030;-91
2023/09/11 06:56:14;;;;;;;5.28;1.40;;;;;;;15.36;100.00;100551.00;4997688;28;20109;-90
2023/09/11 06:58:42;;;;;;;2.63;1.42;;;;;;;15.36;100.00;100555.59;4998596;28;20117;-91
2023/09/11 07:01:11;;;;;;;2.65;1.02;;;;;;;15.36;100.00;100555.59;4998856;28;20061;-92
2023/09/11 07:03:36;;;;;;;4.10;1.30;;;;;;;15.34;100.00;100555.81;5000686;28;20038;-92
2023/09/11 07:06:02;;;;;;;2.88;1.27;;;;;;;15.36;100.00;100564.56;5007626;28;20027;-91
2023/09/11 07:08:28;;;;;;;4.75;1.10;;;;;;;15.34;100.00;100561.22;5020132;28;20050;-91
2023/09/11 07:10:55;;;;;;;3.38;1.27;;;;;;;15.33;100.00;100569.56;5010883;28;20037;-92
2023/09/11 07:13:21;;;;;;;2.95;1.45;;;;;;;15.20;100.00;100567.72;5015221;28;20038;-91
2023/09/11 07:15:59;;;;;;;2.78;1.30;;;;;;;15.02;100.00;100562.13;4999052;28;20030;-92
2023/09/11 07:18:25;;;;;;;2.53;0.60;;;;;;;14.96;100.00;100571.91;4984174;28;20038;-92
2023/09/11 07:20:52;;;;;;;4.72;1.30;;;;;;;14.85;100.00;100572.56;5014006;28;20046;-92
2023/09/11 07:23:19;;;;;;;4.63;1.15;;;;;;;14.83;100.00;100575.47;4982980;28;20470;-92
2023/09/11 07:25:51;;;;;;;4.75;1.38;;;;;;;14.78;100.00;100577.13;5025900;28;20026;-92
2023/09/11 07:28:17;;;;;;;4.38;1.30;;;;;;;14.79;100.00;100590.47;5026548;28;20499;-90
2023/09/11 07:30:44;;;;;;;4.20;1.63;;;;;;;14.73;100.00;100589.41;5019248;28;20133;-93
2023/09/11 07:33:10;;;;;;;2.22;1.20;;;;;;;14.74;100.00;100587.53;5003334;28;20034;-93
2023/09/11 07:35:35;;;;;;;4.70;1.23;;;;;;;14.73;100.00;100580.44;4997232;28;20042;-94
2023/09/11 07:38:01;;;;;;;2.35;1.00;;;;;;;14.75;100.00;100594.63;5013623;28;20038;-91
2023/09/11 07:40:27;;;;;;;5.82;1.27;;;;;;;14.71;100.00;100587.94;4997424;28;20022;-93
2023/09/11 07:42:54;;;;;;;3.65;1.23;;;;;;;14.68;100.00;100594.59;5013290;28;20389;-93
2023/09/11 07:45:21;;;;;;;2.95;1.20;;;;;;;14.69;100.00;100595.44;4996938;28;20461;-94
2023/09/11 07:47:46;;;;;;;3.95;1.40;;;;;;;14.62;100.00;100590.00;5013357;28;20037;-92
2023/09/11 07:50:12;;;;;;;2.20;1.00;;;;;;;14.64;100.00;100601.47;4998336;28;20109;-92
2023/09/11 07:52:38;;;;;;;3.00;1.05;;;;;;;14.65;100.00;100605.00;4996844;28;20029;-92
2023/09/11 07:55:04;;;;;;;2.17;1.20;;;;;;;14.64;100.00;100606.88;5001940;28;20437;-92
2023/09/11 07:57:33;;;;;;;2.67;0.90;;;;;;;14.59;100.00;100595.03;5000759;28;20065;-93
2023/09/11 08:00:04;;;;;;;2.25;1.25;;;;;;;14.63;100.00;100605.22;4981030;28;20034;-93
2023/09/11 08:02:31;;;;;;;4.40;1.35;;;;;;;14.63;100.00;100598.97;5012408;28;20081;-93
2023/09/11 08:04:56;;;;;;;4.57;1.10;;;;;;;14.70;100.00;100610.63;4996647;28;20038;-93
2023/09/11 08:07:22;;;;;;;4.88;1.30;;;;;;;14.71;100.00;100607.72;4996302;28;20065;-92
2023/09/11 08:09:48;;;;;;;3.92;1.05;;;;;;;14.74;100.00;100606.50;4996445;28;20054;-93
2023/09/11 08:12:15;;;;;;;1.85;1.23;;;;;;;14.85;100.00;100610.44;4996086;28;20065;-92
2023/09/11 08:14:41;;;;;;;2.72;1.23;;;;;;;14.86;100.00;100615.63;4980122;28;20038;-91
2023/09/11 08:17:07;;;;;;;2.80;1.50;;;;;;;14.80;100.00;100618.34;5012543;28;20038;-91
2023/09/11 08:19:33;;;;;;;3.35;1.25;;;;;;;14.74;100.00;100620.03;5012123;28;20444;-92
2023/09/11 08:21:58;;;;;;;4.03;0.90;;;;;;;14.67;100.00;100606.47;5012670;28;20034;-91
2023/09/11 08:24:25;;;;;;;2.17;1.10;;;;;;;14.62;100.00;100610.84;4997862;28;20474;-91
2023/09/11 08:26:50;;;;;;;1.63;1.02;;;;;;;14.61;100.00;100610.00;4998609;28;20109;-91
2023/09/11 08:29:18;;;;;;;4.82;1.42;;;;;;;14.67;100.00;100617.28;5001352;28;20053;-90
2023/09/11 08:31:43;;;;;;;2.40;1.02;;;;;;;14.80;100.00;100612.94;5012695;28;20040;-91
2023/09/11 08:34:09;;;;;;;2.38;1.30;;;;;;;14.90;100.00;100614.19;5010242;28;20034;-91
2023/09/11 08:36:35;;;;;;;5.10;1.10;;;;;;;15.01;100.00;100604.63;5011084;28;20030;-90
2023/09/11 08:39:03;;;;;;;4.05;1.10;;;;;;;15.06;100.00;100609.41;5012346;28;20038;-91
2023/09/11 08:41:31;;;;;;;2.15;1.20;;;;;;;15.09;100.00;100609.00;5015243;28;20070;-90
2023/09/11 08:43:56;;;;;;;3.53;1.25;;;;;;;15.21;100.00;100614.59;5020511;28;20045;-93
2023/09/11 08:46:23;;;;;;;3.72;1.40;;;;;;;15.34;100.00;100603.75;4997859;28;20447;-92
2023/09/11 08:48:53;;;;;;;3.28;1.23;;;;;;;15.49;100.00;100611.66;5011846;28;20049;-91
2023/09/11 08:51:25;;;;;;;4.95;1.27;;;;;;;15.57;100.00;100617.66;4995508;28;20469;-92
2023/09/11 08:53:54;;;;;;;1.75;1.30;;;;;;;15.48;100.00;100620.81;4979068;28;20054;-92
2023/09/11 08:56:20;;;;;;;3.72;1.38;;;;;;;15.32;100.00;100620.22;4979052;28;20034;-91
2023/09/11 08:58:48;;;;;;;2.92;1.13;;;;;;;15.28;100.00;100618.13;5011608;28;20041;-93
2023/09/11 09:01:14;;;;;;;3.20;1.30;;;;;;;15.31;100.00;100617.72;4994991;28;20042;-91
2023/09/11 09:03:40;;;;;;;2.13;1.23;;;;;;;15.22;100.00;100619.81;5011082;28;20053;-93
2023/09/11 09:06:06;;;;;;;4.82;1.75;;;;;;;15.30;100.00;100622.31;4994761;28;20035;-91
2023/09/11 09:08:32;;;;;;;2.17;1.10;;;;;;;15.32;100.00;100620.22;4994741;28;20110;-91
2023/09/11 09:10:58;;;;;;;4.25;1.30;;;;;;;15.28;100.00;100631.69;4993137;28;20074;-90
2023/09/11 09:13:24;;;;;;;3.35;1.35;;;;;;;15.24;100.00;100625.00;4961753;28;20389;-90
2023/09/11 09:15:50;;;;;;;3.22;1.33;;;;;;;15.23;100.00;100618.75;4978261;28;20037;-91
2023/09/11 09:18:15;;;;;;;4.07;1.70;;;;;;;15.25;100.00;100619.38;4994501;28;20030;-91
2023/09/11 09:20:41;;;;;;;3.88;1.58;;;;;;;15.21;100.00;100612.72;4994714;28;20488;-90
2023/09/11 09:23:06;;;;;;;3.10;1.55;;;;;;;15.24;100.00;100620.44;4994801;28;20034;-92
2023/09/11 09:25:32;;;;;;;3.67;1.58;;;;;;;15.35;100.00;100616.25;4994657;28;20034;-91
2023/09/11 09:27:58;;;;;;;3.15;1.63;;;;;;;15.56;100.00;100618.72;5010942;28;20057;-91
2023/09/11 09:30:32;;;;;;;4.32;1.67;;;;;;;15.68;100.00;100620.78;4994222;28;20027;-91
2023/09/11 09:33:01;;;;;;;9.15;2.05;;;;;;;15.65;100.00;100616.59;4977727;28;20478;-90
2023/09/11 09:35:32;;;;;;;5.13;1.70;;;;;;;15.74;100.00;100622.66;4994012;28;20044;-92
2023/09/11 09:37:58;;;;;;;4.07;1.67;;;;;;;15.87;100.00;100625.31;4984815;28;20018;-92
2023/09/11 09:40:33;;;;;;;2.90;1.75;;;;;;;16.05;100.00;100627.34;5018004;28;20053;-90
2023/09/11 09:43:08;;;;;;;6.10;2.05;;;;;;;16.25;100.00;100628.09;5002740;28;20034;-94
2023/09/11 09:45:37;;;;;;;3.90;1.77;;;;;;;16.47;100.00;100625.06;4994419;28;20485;-93
2023/09/11 09:48:07;;;;;;;7.05;1.77;;;;;;;16.53;100.00;100624.16;5010795;28;20125;-91
2023/09/11 09:51:02;;;;;;;5.97;1.90;;;;;;;16.45;100.00;100625.25;4978096;28;20038;-92
2023/09/11 09:53:27;;;;;;;4.10;2.15;;;;;;;16.34;100.00;100622.41;4989254;28;20041;-92
2023/09/11 09:56:07;;;;;;;6.38;2.22;;;;;;;16.44;100.00;100622.78;4995392;28;20105;-92
2023/09/11 09:58:54;;;;;;;7.07;1.90;;;;;;;16.45;100.00;100625.25;4981546;28;20074;-92
2023/09/11 10:01:25;;;;;;;6.15;2.05;;;;;;;16.44;100.00;100623.59;4978108;28;20042;-94
2023/09/11 10:03:52;;;;;;;6.72;2.03;;;;;;;16.66;100.00;100624.06;4994225;28;20030;-93
2023/09/11 10:06:18;;;;;;;5.55;1.77;;;;;;;16.80;100.00;100624.03;4994591;28;20468;-92
2023/09/11 10:08:45;;;;;;;5.47;2.03;;;;;;;17.00;100.00;100626.59;4978571;28;20069;-93
2023/09/11 10:11:31;;;;;;;4.07;2.03;;;;;;;17.21;100.00;100628.91;4978204;28;20071;-92
2023/09/11 10:13:58;;;;;;;5.45;1.90;;;;;;;17.10;100.00;100630.47;4994229;28;20473;-94
2023/09/11 10:16:25;;;;;;;4.85;1.52;;;;;;;17.01;100.00;100626.34;5010633;28;20137;-92
2023/09/11 10:18:56;;;;;;;5.82;1.88;;;;;;;16.91;100.00;100617.91;5010709;28;20461;-94
2023/09/11 10:21:23;;;;;;;5.18;1.88;;;;;;;17.23;100.00;100620.56;5011073;28;20054;-94
2023/09/11 10:23:50;;;;;;;4.60;2.25;;;;;;;17.38;100.00;100621.00;5012593;28;20046;-93
2023/09/11 10:26:25;;;;;;;6.72;2.30;;;;;;;17.21;100.00;100614.50;5015249;28;20109;-93
2023/09/11 10:29:10;;;;;;;3.40;1.70;;;;;;;17.11;100.00;100620.44;4982334;28;20031;-94
2023/09/11 10:31:43;;;;;;;7.40;1.90;;;;;;;16.91;100.00;100624.16;4966958;28;20038;-92
2023/09/11 10:34:09;;;;;;;5.88;2.20;;;;;;;16.74;100.00;100619.44;4996531;28;20034;-92
2023/09/11 10:36:37;;;;;;;5.45;2.38;;;;;;;16.62;100.00;100622.03;5014782;28;20076;-93
2023/09/11 10:39:06;;;;;;;4.78;1.92;;;;;;;16.54;100.00;100623.13;5017824;28;20461;-94
2023/09/11 10:41:32;;;;;;;8.02;2.15;;;;;;;16.56;100.00;100620.19;4999938;28;20052;-93
2023/09/11 10:43:58;;;;;;;4.68;2.10;;;;;;;16.61;100.00;100615.75;4983184;28;20034;-94
2023/09/11 10:46:23;;;;;;;6.93;2.05;;;;;;;16.67;100.00;100616.75;4982434;28;20106;-93
2023/09/11 10:48:52;;;;;;;7.50;2.03;;;;;;;16.64;100.00;100611.78;4982480;28;20042;-94
2023/09/11 10:51:18;;;;;;;5.63;2.20;;;;;;;16.54;100.00;100603.28;4982978;28;20026;-93
2023/09/11 10:53:53;;;;;;;7.20;2.45;;;;;;;16.52;100.00;100603.50;5014534;28;20034;-93
2023/09/11 10:56:19;;;;;;;5.35;2.28;;;;;;;16.52;100.00;100600.81;4982075;28;20026;-94
2023/09/11 10:58:52;;;;;;;6.20;2.65;;;;;;;16.51;100.00;100604.53;4998775;28;20031;-94
2023/09/11 11:01:17;;;;;;;8.38;4.38;;;;;;;16.76;100.00;100601.06;4966615;28;20125;-94
2023/09/11 11:03:43;;;;;;;8.63;3.83;;;;;;;17.11;100.00;100599.53;5000039;28;20294;-93
2023/09/11 11:06:17;;;;;;;9.88;3.65;;;;;;;17.39;100.00;100594.69;4999883;28;20050;-95
2023/09/11 11:08:49;;;;;;;6.95;3.17;;;;;;;17.41;100.00;100598.84;4982712;28;20117;-93
2023/09/11 11:11:22;;;;;;;7.28;2.95;;;;;;;17.38;100.00;100606.59;4966964;28;20030;-94
2023/09/11 11:14:11;;;;;;;7.95;2.45;;;;;;;17.21;100.00;100606.34;4998252;28;20540;-94
2023/09/11 11:16:37;;;;;;;4.63;2.40;;;;;;;17.02;100.00;100605.47;4981643;28;20080;-94
2023/09/11 11:19:04;;;;;;;4.55;2.17;;;;;;;16.88;100.00;100605.59;4981957;28;20034;-94